Latest Weather Observations for Noarlunga

IDS60801

Issued at 5:35 pm CDT Saturday 29 November 2014 (issued every 30 minutes, with the page automatically refreshed every 10 minutes)

About weather observations | Map of weather stations | Latest weather observations for SA | Other Formats
Station Details ID: 023885 Name: NOARLUNGA Lat: -35.16 Lon: 138.51 Height: 55.0 m
Data from the previous 72 hours. | See also: Recent months at Noarlunga
Date/Time
CDT
Temp
°C
App
Temp
°C
Dew
Point
Rel
Hum
%
Delta-T
°C
Wind Press
QNH
hPa
Press
MSL
hPa
Rain
since 9 am
mm
Dir
 
Spd
km/h
Gust
km/h
Spd
kts
Gust
kts
29/05:30pm 31.9 27.7 -1.0 12 15.7 SW 11 17 6 9 - - 0.0
29/05:00pm 32.2 28.8 -0.8 12 15.8 SSW 7 11 4 6 - - 0.0
29/04:30pm 32.6 29.2 -1.7 11 16.2 SW 6 9 3 5 - - 0.0
29/04:00pm 31.9 27.5 -2.2 11 15.9 WSW 11 15 6 8 - - 0.0
29/03:30pm 33.9 30.1 -0.7 11 16.8 W 9 15 5 8 - - 0.0
29/03:00pm 33.4 29.0 0.1 12 16.3 WNW 13 22 7 12 - - 0.0
29/02:30pm 33.5 29.7 -1.0 11 16.6 WNW 9 19 5 10 - - 0.0
29/02:00pm 31.6 27.8 1.8 15 14.9 NW 11 17 6 9 - - 0.0
29/01:30pm 32.1 27.8 3.1 16 14.8 NW 15 22 8 12 - - 0.0
29/01:00pm 31.8 28.7 3.8 17 14.5 NW 9 13 5 7 - - 0.0
29/12:30pm 29.6 27.3 7.5 25 12.0 W 9 13 5 7 - - 0.0
29/12:00pm 28.2 26.3 9.0 30 10.6 WNW 9 13 5 7 - - 0.0
29/11:30am 27.6 25.9 8.5 30 10.4 W 7 11 4 6 - - 0.0
29/11:00am 25.0 23.4 8.9 36 8.7 W 7 11 4 6 - - 0.0
29/10:30am 25.8 24.3 8.3 33 9.4 W 6 9 3 5 - - 0.0
29/10:00am 24.9 23.1 8.0 34 9.0 W 7 13 4 7 - - 0.0
29/09:30am 25.2 23.4 7.3 32 9.4 W 6 9 3 5 - - 0.0
29/09:00am 24.9 23.2 6.1 30 9.7 W 4 7 2 4 - - 0.0
29/08:30am 23.9 22.3 6.2 32 9.1 WNW 4 6 2 3 - - 0.0
29/08:00am 22.5 20.4 6.7 36 8.1 NW 7 11 4 6 - - 0.0
29/07:30am 21.6 19.1 4.7 33 8.3 WNW 7 9 4 5 - - 0.0
29/07:00am 23.4 20.0 -0.8 20 10.9 NE 7 11 4 6 - - 0.0
29/06:30am 21.9 18.2 -0.1 23 9.9 NE 9 19 5 10 - - 0.0
29/06:00am 21.0 18.1 1.3 27 9.0 N 6 9 3 5 - - 0.0
29/05:30am 21.3 17.5 1.6 27 9.1 ENE 11 20 6 11 - - 0.0
29/05:00am 20.5 16.9 2.8 31 8.3 E 11 19 6 10 - - 0.0
29/04:30am 21.4 17.1 3.1 30 8.7 E 15 26 8 14 - - 0.0
29/04:00am 20.7 16.6 4.3 34 7.9 E 15 20 8 11 - - 0.0
29/03:30am 20.6 16.2 5.0 36 7.7 E 17 24 9 13 - - 0.0
29/03:00am 20.1 15.2 5.0 37 7.4 E 20 33 11 18 - - 0.0
29/02:30am 19.9 14.4 5.9 40 7.0 E 24 37 13 20 - - 0.0
29/02:00am 19.7 14.2 4.2 36 7.4 E 22 33 12 18 - - 0.0
29/01:30am 19.8 13.9 3.9 35 7.6 E 24 37 13 20 - - 0.0
29/01:00am 19.7 13.6 3.0 33 7.8 E 24 37 13 20 - - 0.0
29/12:30am 19.2 12.9 3.8 36 7.3 E 26 37 14 20 - - 0.0
29/12:00am 19.1 12.8 3.7 36 7.3 E 26 35 14 19 - - 0.0
 
Date/Time
CDT
Temp
°C
App
Temp
°C
Dew
Point
Rel
Hum
%
Delta-T
°C
Wind Press
QNH
hPa
Press
MSL
hPa
Rain
since 9 am
mm
Dir
 
Spd
km/h
Gust
km/h
Spd
kts
Gust
kts
28/11:30pm 18.9 13.7 3.5 36 7.2 E 20 32 11 17 - - 0.0
28/11:00pm 19.1 14.3 2.5 33 7.7 E 17 24 9 13 - - 0.0
28/10:30pm 19.1 15.1 2.9 34 7.5 E 13 20 7 11 - - 0.0
28/10:00pm 19.3 15.2 4.6 38 7.1 E 15 22 8 12 - - 0.0
28/09:30pm 20.1 15.7 5.0 37 7.4 ESE 17 28 9 15 - - 0.0
28/09:00pm 20.8 16.6 5.6 37 7.6 ESE 17 24 9 13 - - 0.0
28/08:30pm 21.8 17.7 6.1 36 7.9 ESE 17 24 9 13 - - 0.0
28/08:00pm 23.1 19.3 6.0 33 8.7 ESE 15 22 8 12 - - 0.0
28/07:30pm 24.1 21.5 4.0 27 9.9 SE 7 11 4 6 - - 0.0
28/07:00pm 23.7 21.7 4.6 29 9.5 W 4 9 2 5 - - 0.0
28/06:30pm 23.9 21.1 3.2 26 10.0 SW 7 13 4 7 - - 0.0
28/06:00pm 24.4 20.7 4.2 27 10.0 SW 13 20 7 11 - - 0.0
28/05:30pm 26.5 22.7 3.7 23 11.4 SW 13 17 7 9 - - 0.0
28/05:00pm 27.9 23.7 1.4 18 12.8 WSW 13 19 7 10 - - 0.0
28/04:30pm 27.6 23.7 1.2 18 12.7 SW 11 19 6 10 - - 0.0
28/04:00pm 27.2 23.5 2.3 20 12.2 WSW 11 15 6 8 - - 0.0
28/03:30pm 27.5 24.3 5.1 24 11.5 SW 11 19 6 10 - - 0.0
28/03:00pm 26.9 23.2 6.3 27 10.8 WSW 15 24 8 13 - - 0.0
28/02:30pm 26.1 23.0 9.0 34 9.3 WSW 15 22 8 12 - - 0.0
28/02:00pm 27.5 23.5 5.1 24 11.5 WSW 15 19 8 10 - - 0.0
28/01:30pm 26.7 23.9 8.6 32 9.9 W 13 19 7 10 - - 0.0
28/01:00pm 26.7 23.9 8.6 32 9.9 WNW 13 17 7 9 - - 0.0
28/12:30pm 26.8 24.7 8.3 31 10.0 WNW 9 13 5 7 - - 0.0
28/12:00pm 25.4 22.8 9.3 36 8.8 WNW 13 17 7 9 - - 0.0
28/11:30am 25.8 23.1 8.8 34 9.2 WNW 13 17 7 9 - - 0.0
28/11:00am 26.9 24.4 4.6 24 11.3 E 7 15 4 8 - - 0.0
28/10:30am 25.9 23.0 6.5 29 10.1 E 11 17 6 9 - - 0.0
28/10:00am 24.6 21.9 9.0 37 8.5 E 13 22 7 12 - - 0.0
28/09:30am 22.5 20.0 9.6 44 7.0 ESE 13 20 7 11 - - 0.0
28/09:00am 20.8 17.3 10.3 51 5.7 ESE 19 30 10 16 - - 0.0
28/08:30am 19.1 15.6 10.9 59 4.5 ESE 20 33 11 18 - - 0.0
28/08:00am 17.8 14.0 11.1 65 3.6 ESE 22 33 12 18 - - 0.0
28/07:30am 16.5 12.4 11.4 72 2.8 ESE 24 33 13 18 - - 0.0
28/07:00am 15.5 10.9 11.1 75 2.4 ESE 26 37 14 20 - - 0.0
28/06:30am 14.6 10.8 11.0 79 1.9 E 22 32 12 17 - - 0.0
28/06:00am 14.2 9.5 10.8 80 1.8 E 26 39 14 21 - - 0.0
28/05:30am 13.9 9.5 10.5 80 1.8 E 24 35 13 19 - - 0.0
28/05:00am 13.6 9.6 10.4 81 1.7 E 22 32 12 17 - - 0.0
28/04:30am 13.3 9.2 10.1 81 1.7 E 22 33 12 18 - - 0.0
28/04:00am 13.0 9.1 9.6 80 1.7 E 20 30 11 16 - - 0.0
28/03:30am 13.3 10.0 9.4 77 2.0 E 17 26 9 14 - - 0.0
28/03:00am 13.2 10.6 9.3 77 2.0 E 13 24 7 13 - - 0.0
28/02:30am 13.4 9.6 9.1 75 2.2 E 19 32 10 17 - - 0.0
28/02:00am 13.3 10.3 9.2 76 2.1 E 15 22 8 12 - - 0.0
28/01:30am 13.4 11.9 9.3 76 2.1 E 7 15 4 8 - - 0.0
28/01:00am 13.4 12.0 9.6 78 1.9 ENE 7 17 4 9 - - 0.0
28/12:30am 13.4 10.9 9.6 78 1.9 E 13 22 7 12 - - 0.0
28/12:00am 13.5 10.6 9.6 77 2.0 ESE 15 24 8 13 - - 0.0
 
Date/Time
CDT
Temp
°C
App
Temp
°C
Dew
Point
Rel
Hum
%
Delta-T
°C
Wind Press
QNH
hPa
Press
MSL
hPa
Rain
since 9 am
mm
Dir
 
Spd
km/h
Gust
km/h
Spd
kts
Gust
kts
27/11:30pm 13.6 11.1 9.6 77 2.1 ESE 13 20 7 11 - - 0.0
27/11:00pm 13.8 11.6 9.5 75 2.2 ESE 11 17 6 9 - - 0.0
27/10:30pm 14.1 12.8 9.1 72 2.5 E 6 11 3 6 - - 0.0
27/10:00pm 14.6 12.3 9.0 69 2.9 ESE 11 20 6 11 - - 0.0
27/09:30pm 15.0 11.5 8.9 67 3.1 SE 17 26 9 14 - - 0.0
27/09:00pm 15.3 11.4 8.5 64 3.5 SE 19 28 10 15 - - 0.0
27/08:30pm 15.9 12.6 7.9 59 4.0 SE 15 22 8 12 - - 0.0
27/08:00pm 17.1 12.7 7.2 52 5.0 SE 20 28 11 15 - - 0.0
27/07:30pm 18.6 14.8 7.4 48 5.7 SE 17 24 9 13 - - 0.0
27/07:00pm 19.9 15.1 7.3 44 6.4 SE 22 32 12 17 - - 0.0
27/06:30pm 20.8 15.5 6.7 40 7.2 SE 24 32 13 17 - - 0.0
27/06:00pm 21.4 15.3 6.5 38 7.6 SSE 28 37 15 20 - - 0.0
27/05:30pm 23.1 17.7 6.4 34 8.6 SSE 24 33 13 18 - - 0.0
27/05:00pm 23.7 18.0 6.5 33 8.9 SE 26 35 14 19 - - 0.0
27/04:30pm 24.1 17.8 5.9 31 9.3 SSE 28 35 15 19 - - 0.0
27/04:00pm 25.4 20.5 7.1 31 9.6 SSE 22 35 12 19 - - 0.0
27/03:30pm 25.2 20.3 6.9 31 9.6 SSE 22 28 12 15 - - 0.0
27/03:00pm 26.3 22.0 7.8 31 9.9 SSE 20 30 11 16 - - 0.0
27/02:30pm 26.5 22.7 7.5 30 10.1 SSE 17 28 9 15 - - 0.0
27/02:00pm 26.3 22.8 7.4 30 10.1 SSE 15 26 8 14 - - 0.0
27/01:30pm 25.6 22.3 8.1 33 9.4 SSE 15 24 8 13 - - 0.0
27/01:00pm 25.0 22.1 8.1 34 9.0 ESE 13 22 7 12 - - 0.0
27/12:30pm 24.4 21.7 8.8 37 8.4 E 13 20 7 11 - - 0.0
27/12:00pm 23.1 20.3 8.4 39 7.8 E 13 20 7 11 - - 0.0
27/11:30am 22.6 19.5 8.7 41 7.4 ESE 15 26 8 14 - - 0.0
27/11:00am 22.3 19.7 9.5 44 6.9 E 13 24 7 13 - - 0.0
27/10:30am 20.7 17.0 9.6 49 5.9 E 19 28 10 15 - - 0.0
27/10:00am 19.5 15.7 9.7 53 5.2 ESE 20 30 11 16 - - 0.0
27/09:30am 18.5 13.5 9.6 56 4.7 ESE 26 35 14 19 - - 0.0
27/09:00am 18.3 13.8 10.2 59 4.3 E 24 39 13 21 - - 0.0
27/08:30am 16.5 10.6 9.2 62 3.8 ESE 30 41 16 22 - - 0.0
27/08:00am 15.9 10.6 8.6 62 3.7 ESE 26 37 14 20 - - 0.0
27/07:30am 15.1 9.7 8.1 63 3.5 ESE 26 37 14 20 - - 0.0
27/07:00am 14.3 8.9 7.8 65 3.2 ESE 26 43 14 23 - - 0.0
27/06:30am 13.8 9.4 7.3 65 3.2 ESE 20 32 11 17 - - 0.0
27/06:00am 13.4 9.5 7.2 66 3.0 ESE 17 26 9 14 - - 0.0
27/05:30am 13.5 10.5 7.7 68 2.9 E 13 22 7 12 - - 0.0
27/05:00am 13.7 11.2 8.1 69 2.8 E 11 20 6 11 - - 0.0
27/04:30am 14.0 10.0 8.4 69 2.8 ESE 19 33 10 18 - - 0.0
27/04:00am 14.3 10.0 7.8 65 3.2 ESE 20 35 11 19 - - 0.0
27/03:30am 14.7 11.5 10.1 74 2.4 SE 17 26 9 14 - - 0.0
27/03:00am 15.0 11.0 10.4 74 2.4 SE 22 35 12 19 - - 0.0
27/02:30am 15.2 11.8 10.6 74 2.4 SE 19 28 10 15 - - 0.0
27/02:00am 15.3 12.4 11.1 76 2.2 SE 17 24 9 13 - - 0.0
27/01:30am 15.0 11.7 10.8 76 2.2 SE 19 28 10 15 - - 0.0
27/01:00am 14.9 11.9 10.7 76 2.2 SE 17 24 9 13 - - 0.0
27/12:30am 15.0 12.7 10.6 75 2.3 SE 13 22 7 12 - - 0.0
27/12:00am 15.1 11.7 10.5 74 2.4 SE 19 26 10 14 - - 0.0
 
Date/Time
CDT
Temp
°C
App
Temp
°C
Dew
Point
Rel
Hum
%
Delta-T
°C
Wind Press
QNH
hPa
Press
MSL
hPa
Rain
since 9 am
mm
Dir
 
Spd
km/h
Gust
km/h
Spd
kts
Gust
kts
26/11:30pm 15.3 11.3 10.5 73 2.5 SE 22 30 12 16 - - 0.0
26/11:00pm 15.7 12.7 10.7 72 2.7 SE 17 30 9 16 - - 0.0
26/10:30pm 15.4 11.9 10.2 71 2.7 SSE 19 30 10 16 - - 0.0
26/10:00pm 15.6 11.8 9.9 69 3.0 SE 20 35 11 19 - - 0.0
26/09:30pm 15.6 11.4 9.7 68 3.1 SSE 22 33 12 18 - - 0.0
26/09:00pm 15.8 11.6 9.9 68 3.1 SSE 22 32 12 17 - - 0.0
26/08:30pm 15.7 12.4 9.4 66 3.3 SSE 17 33 9 18 - - 0.0
26/08:00pm 16.1 11.7 9.1 63 3.6 SSE 22 39 12 21 - - 0.0
26/07:30pm 16.8 11.6 9.0 60 4.0 SSE 26 37 14 20 - - 0.0
26/07:00pm 18.0 13.9 8.8 55 4.8 SE 20 30 11 16 - - 0.0
26/06:30pm 18.3 12.7 8.6 53 5.0 SSE 28 37 15 20 - - 0.0
26/06:00pm 19.1 14.0 7.8 48 5.8 SSE 24 33 13 18 - - 0.0

Other Formats:

Comma delimited format used in spreadsheet applications
http://www.bom.gov.au/fwo/IDS60801/IDS60801.94808.axf

JavaScript Object Notation format (JSON) in row-major order
http://www.bom.gov.au/fwo/IDS60801/IDS60801.94808.json